Time;durP1;ratioP1;P1;durP2;ratioP2;P2;SDS_P1;SDS_P2;PMS_P1;PMS_P2;Temp;Humidity;BMP_temperature;BMP_pressure;BME280_temperature;BME280_humidity;BME280_pressure;Samples;Min_cycle;Max_cycle;Signal;HPM_P1;HPM_P2
2022/02/03 00:04:24;;;;;;;5.70;3.65;;;21.50;57.90;;;;;;4956727;28;88007;-86
2022/02/03 00:06:57;;;;;;;5.72;3.38;;;21.50;58.40;;;;;;4953089;28;88475;-84
2022/02/03 00:25:13;;;;;;;4.53;3.30;;;21.50;57.70;;;;;;4964259;28;86918;-82
2022/02/03 00:28:27;;;;;;;3.88;3.00;;;21.40;57.40;;;;;;4967376;28;87526;-83
2022/02/03 00:30:58;;;;;;;4.47;3.40;;;21.40;57.60;;;;;;4959008;28;87353;-82
2022/02/03 00:33:46;;;;;;;5.03;3.63;;;21.40;57.50;;;;;;4959357;28;89093;-83
2022/02/03 00:36:18;;;;;;;3.78;2.95;;;21.40;57.40;;;;;;4964825;28;87448;-82
2022/02/03 00:50:12;;;;;;;6.22;3.90;;;21.40;57.30;;;;;;4962549;28;87695;-82
2022/02/03 00:52:37;;;;;;;4.57;3.80;;;21.40;57.20;;;;;;4957554;28;87033;-83
2022/02/03 00:55:05;;;;;;;5.28;3.80;;;21.40;57.20;;;;;;4957096;28;87992;-83
2022/02/03 00:57:39;;;;;;;5.90;3.50;;;21.30;57.10;;;;;;4963566;28;87213;-84
2022/02/03 01:00:09;;;;;;;4.63;3.35;;;21.40;57.10;;;;;;4958498;28;88533;-81
2022/02/03 01:02:43;;;;;;;4.30;3.60;;;21.40;57.10;;;;;;4959856;28;88041;-83
2022/02/03 01:05:17;;;;;;;4.53;3.47;;;21.30;56.90;;;;;;4966453;28;87367;-84
2022/02/03 01:07:49;;;;;;;4.88;3.58;;;21.30;56.90;;;;;;4961639;28;87997;-84
2022/02/03 01:10:21;;;;;;;4.75;3.75;;;21.40;57.00;;;;;;4960621;28;87508;-84
2022/02/03 01:13:02;;;;;;;5.35;3.50;;;21.30;56.90;;;;;;4965772;28;90294;-84
2022/02/03 01:15:40;;;;;;;4.85;3.95;;;21.30;56.80;;;;;;4964740;28;87577;-79
2022/02/03 01:35:07;;;;;;;5.28;3.70;;;21.30;56.80;;;;;;4961448;28;86934;-80
2022/02/03 01:43:20;;;;;;;5.50;3.53;;;21.20;56.70;;;;;;4966013;28;86844;-85
2022/02/03 01:48:23;;;;;;;4.28;3.63;;;21.20;56.50;;;;;;4958450;28;87925;-81
2022/02/03 01:53:39;;;;;;;4.85;3.70;;;21.30;56.60;;;;;;4958530;28;88642;-81
2022/02/03 01:56:24;;;;;;;4.05;3.30;;;21.20;56.50;;;;;;4964334;28;89164;-82
2022/02/03 01:58:56;;;;;;;4.13;3.40;;;21.20;56.50;;;;;;4958239;28;87862;-85
2022/02/03 02:01:27;;;;;;;3.95;3.47;;;21.20;56.50;;;;;;4954455;28;87982;-80
2022/02/03 02:04:07;;;;;;;4.97;3.30;;;21.20;56.50;;;;;;4959803;28;87516;-83
2022/02/03 02:06:42;;;;;;;4.57;3.47;;;21.20;56.50;;;;;;4964429;28;87692;-84
2022/02/03 02:09:26;;;;;;;5.65;3.40;;;21.20;56.60;;;;;;4962611;28;87868;-84
2022/02/03 02:12:16;;;;;;;4.95;3.45;;;21.20;56.30;;;;;;4962317;28;86765;-83
2022/02/03 02:42:40;;;;;;;3.60;3.20;;;21.10;56.10;;;;;;4967910;28;87168;-84
2022/02/03 02:45:12;;;;;;;4.03;3.53;;;21.10;56.10;;;;;;4959542;28;89576;-78
2022/02/03 02:47:53;;;;;;;4.13;3.63;;;21.10;56.10;;;;;;4964519;28;88992;-83
2022/02/03 02:50:39;;;;;;;3.97;3.25;;;21.10;56.20;;;;;;4961666;28;89279;-84
2022/02/03 02:53:29;;;;;;;3.97;3.47;;;21.10;56.10;;;;;;4953834;28;87944;-81
2022/02/03 02:56:18;;;;;;;3.65;3.17;;;21.10;56.10;;;;;;4957969;28;89383;-83
2022/02/03 03:37:01;;;;;;;4.63;3.08;;;21.00;55.70;;;;;;4958463;28;87817;-82
2022/02/03 03:39:32;;;;;;;3.40;3.08;;;21.00;55.70;;;;;;4963973;28;87360;-81
2022/02/03 03:42:05;;;;;;;3.33;3.00;;;21.00;55.80;;;;;;4957517;28;88511;-81
2022/02/03 03:44:33;;;;;;;4.00;3.15;;;21.00;55.80;;;;;;4969405;28;89402;-84
2022/02/03 03:47:03;;;;;;;3.77;3.03;;;21.00;55.80;;;;;;4970429;28;87885;-78
2022/02/03 03:49:34;;;;;;;;;;;21.00;55.20;;;;;;4954345;28;90336;-80
2022/02/03 03:52:13;;;;;;;2.90;2.70;;;21.00;55.20;;;;;;4962742;28;87686;-82
2022/02/03 03:54:51;;;;;;;3.00;2.70;;;21.00;55.20;;;;;;4966450;28;87965;-83
2022/02/03 04:34:34;;;;;;;2.75;2.47;;;20.90;55.00;;;;;;4973472;28;87438;-84
2022/02/03 04:46:02;;;;;;;3.28;2.83;;;20.90;55.00;;;;;;4972074;28;87564;-81
2022/02/03 04:54:54;;;;;;;3.25;2.60;;;20.90;55.00;;;;;;4961076;28;87457;-84
2022/02/03 05:03:05;;;;;;;3.42;2.85;;;20.90;55.00;;;;;;4968316;28;87216;-82
2022/02/03 05:46:54;;;;;;;4.35;2.80;;;20.80;54.80;;;;;;4960392;28;87982;-80
2022/02/03 06:02:50;;;;;;;3.30;2.97;;;20.70;54.50;;;;;;4957674;28;87984;-82
2022/02/03 06:24:02;;;;;;;2.83;2.53;;;20.70;54.50;;;;;;4955823;28;87584;-84
2022/02/03 06:29:19;;;;;;;3.42;2.97;;;20.70;54.50;;;;;;4960185;28;89450;-82
2022/02/03 06:31:47;;;;;;;2.78;2.53;;;20.70;54.10;;;;;;4966579;28;88163;-80
2022/02/03 06:34:15;;;;;;;3.47;2.55;;;20.70;54.20;;;;;;4957865;28;87433;-79
2022/02/03 06:36:42;;;;;;;4.55;2.72;;;20.70;54.20;;;;;;4966167;28;87443;-83
2022/02/03 06:39:19;;;;;;;3.58;2.67;;;20.70;53.70;;;;;;4963216;28;87962;-81
2022/02/03 06:41:46;;;;;;;4.70;3.13;;;20.70;54.30;;;;;;4962903;28;87164;-82
2022/02/03 06:44:14;;;;;;;3.67;2.60;;;20.80;54.40;;;;;;4965506;28;87374;-81
2022/02/03 06:46:44;;;;;;;3.42;3.00;;;20.80;54.50;;;;;;4959298;28;86282;-79
2022/02/03 06:49:18;;;;;;;3.75;3.30;;;20.90;54.30;;;;;;4970250;28;87775;-78
2022/02/03 06:51:53;;;;;;;3.63;2.83;;;20.90;54.50;;;;;;4964779;28;88433;-81
2022/02/03 06:55:08;;;;;;;3.38;3.08;;;21.00;54.20;;;;;;4958937;28;87805;-83
2022/02/03 06:57:14;;;;;;;3.30;3.00;;;21.00;54.10;;;;;;4965432;28;87139;-80
2022/02/03 06:59:59;;;;;;;2.90;2.58;;;21.00;54.20;;;;;;4958980;28;88048;-82
2022/02/03 07:02:31;;;;;;;5.45;2.60;;;21.00;54.30;;;;;;4953083;28;88384;-78
2022/02/03 07:04:57;;;;;;;6.57;3.00;;;21.10;54.30;;;;;;4964648;28;87629;-81
2022/02/03 07:07:38;;;;;;;2.70;2.47;;;21.10;54.20;;;;;;4951820;28;87943;-79
2022/02/03 07:10:04;;;;;;;3.30;2.75;;;21.10;54.20;;;;;;4957740;28;87634;-77
2022/02/03 07:12:30;;;;;;;3.58;2.53;;;21.10;54.10;;;;;;4952836;28;87878;-81
2022/02/03 07:14:55;;;;;;;3.00;2.65;;;21.10;54.10;;;;;;4965677;28;88149;-81
2022/02/03 07:17:21;;;;;;;3.83;2.85;;;21.10;54.00;;;;;;4951408;28;87985;-80
2022/02/03 07:19:49;;;;;;;3.42;2.70;;;21.10;54.00;;;;;;4963583;28;88502;-80
2022/02/03 07:22:15;;;;;;;2.58;2.38;;;21.10;53.90;;;;;;4953614;28;88714;-82
2022/02/03 07:24:41;;;;;;;2.58;2.22;;;21.10;54.30;;;;;;4952017;28;87521;-80
2022/02/03 07:27:07;;;;;;;3.30;2.03;;;21.10;54.20;;;;;;4959627;28;87449;-83
2022/02/03 07:29:32;;;;;;;2.55;2.30;;;21.10;54.30;;;;;;4953855;28;87983;-80
2022/02/03 07:31:58;;;;;;;3.78;2.60;;;21.10;54.50;;;;;;4960104;28;87422;-82
2022/02/03 07:34:24;;;;;;;3.17;2.22;;;21.10;54.40;;;;;;4962107;28;87779;-83
2022/02/03 07:36:50;;;;;;;3.90;2.03;;;21.10;54.40;;;;;;4965297;28;86697;-80
2022/02/03 07:39:15;;;;;;;11.35;4.10;;;21.10;54.50;;;;;;4949988;28;87915;-78
2022/02/03 07:41:41;;;;;;;17.02;4.53;;;21.10;54.20;;;;;;4957796;28;87470;-81
2022/02/03 07:44:08;;;;;;;21.48;6.00;;;21.00;54.40;;;;;;4952964;28;88776;-79
2022/02/03 07:46:35;;;;;;;19.90;6.82;;;21.00;52.90;;;;;;4959509;28;89308;-81
2022/02/03 07:49:04;;;;;;;14.18;4.72;;;21.00;52.50;;;;;;4966098;28;88628;-78
2022/02/03 07:51:34;;;;;;;13.77;4.80;;;21.00;52.90;;;;;;4967915;28;88968;-80
2022/02/03 07:53:59;;;;;;;16.95;5.00;;;21.00;53.10;;;;;;4962180;28;87032;-81
2022/02/03 07:56:25;;;;;;;18.42;5.10;;;21.00;53.50;;;;;;4962460;28;87751;-78
2022/02/03 07:58:51;;;;;;;11.55;4.72;;;21.00;53.20;;;;;;4955074;28;88253;-80
2022/02/03 08:01:16;;;;;;;23.90;6.55;;;21.00;53.60;;;;;;4961491;28;87779;-82
2022/02/03 08:03:44;;;;;;;24.88;5.72;;;21.00;53.50;;;;;;4957213;28;87514;-84
2022/02/03 08:06:15;;;;;;;20.25;5.95;;;21.00;53.70;;;;;;4961306;28;88022;-85
2022/02/03 08:08:48;;;;;;;17.10;5.68;;;21.10;53.90;;;;;;4959563;28;88339;-81
2022/02/03 08:11:21;;;;;;;26.45;8.20;;;21.00;53.90;;;;;;4953246;28;88780;-83
2022/02/03 08:18:45;;;;;;;43.53;12.65;;;21.10;53.70;;;;;;4962805;28;87710;-83
2022/02/03 08:21:18;;;;;;;33.38;10.13;;;21.10;54.10;;;;;;4924070;28;88793;-81
2022/02/03 08:24:17;;;;;;;30.52;10.02;;;21.10;54.30;;;;;;4949719;28;87493;-83
2022/02/03 08:26:53;;;;;;;31.20;10.23;;;21.20;54.70;;;;;;4949887;28;86769;-81
2022/02/03 08:31:53;;;;;;;34.03;10.30;;;21.20;54.80;;;;;;4952590;28;87257;-79
2022/02/03 08:34:35;;;;;;;30.08;9.77;;;21.20;55.20;;;;;;4950758;28;88445;-82
2022/02/03 08:37:05;;;;;;;39.60;12.15;;;21.20;55.00;;;;;;4953320;28;88094;-78
2022/02/03 08:39:36;;;;;;;37.75;10.73;;;21.20;55.20;;;;;;4952894;28;88090;-78
2022/02/03 08:42:02;;;;;;;34.42;10.68;;;21.20;55.20;;;;;;4952231;28;87597;-78
2022/02/03 08:44:28;;;;;;;36.63;10.23;;;21.20;55.60;;;;;;4952928;28;87835;-82
2022/02/03 08:46:54;;;;;;;40.53;10.77;;;21.20;55.90;;;;;;4951420;28;87486;-77
2022/02/03 08:49:22;;;;;;;33.28;10.45;;;21.10;55.90;;;;;;4952574;28;87965;-80
2022/02/03 08:51:48;;;;;;;31.02;10.23;;;21.20;56.10;;;;;;4951566;28;88504;-80
2022/02/03 08:54:14;;;;;;;28.42;9.88;;;21.10;56.00;;;;;;4962001;28;87592;-78
2022/02/03 08:56:48;;;;;;;33.72;9.82;;;21.10;56.10;;;;;;4952369;28;87534;-78
2022/02/03 09:37:23;;;;;;;29.08;9.43;;;21.10;56.50;;;;;;4951393;28;87392;-80
2022/02/03 09:53:55;;;;;;;32.58;11.40;;;21.10;56.70;;;;;;4950421;28;88758;-79
2022/02/03 09:56:35;;;;;;;31.17;10.32;;;21.10;59.10;;;;;;4960543;28;88074;-79
2022/02/03 09:59:11;;;;;;;30.17;10.60;;;21.10;59.70;;;;;;4949254;28;87375;-83
2022/02/03 10:01:45;;;;;;;29.33;10.75;;;21.10;59.40;;;;;;4949856;28;87501;-82
2022/02/03 10:04:16;;;;;;;28.80;10.25;;;21.20;60.70;;;;;;4950015;28;88776;-82
2022/02/03 10:06:52;;;;;;;30.08;10.15;;;21.10;60.80;;;;;;4949659;28;87971;-82
2022/02/03 10:09:35;;;;;;;25.17;9.25;;;21.10;59.30;;;;;;4947760;28;87739;-81
2022/02/03 10:12:01;;;;;;;22.77;8.93;;;21.10;59.00;;;;;;4950292;28;86886;-81
2022/02/03 10:14:46;;;;;;;30.90;9.85;;;21.10;58.80;;;;;;4949000;28;89315;-82
2022/02/03 10:17:14;;;;;;;24.52;9.20;;;21.10;58.50;;;;;;4949857;28;87869;-81
2022/02/03 10:19:43;;;;;;;27.58;9.55;;;21.10;58.10;;;;;;4949796;28;88936;-82
2022/02/03 10:22:16;;;;;;;26.80;8.65;;;21.10;58.30;;;;;;4950597;28;88007;-82
2022/02/03 10:24:45;;;;;;;30.00;8.82;;;21.10;58.00;;;;;;4950330;28;90959;-81
2022/02/03 10:27:37;;;;;;;26.70;9.10;;;21.10;58.00;;;;;;4946493;28;87881;-81
2022/02/03 10:30:12;;;;;;;26.38;8.50;;;21.20;57.90;;;;;;4950625;28;87674;-80
2022/02/03 10:32:43;;;;;;;21.98;8.05;;;21.20;58.00;;;;;;4951205;28;87501;-81
2022/02/03 10:35:40;;;;;;;24.65;8.98;;;21.10;57.50;;;;;;4950028;28;87583;-81
2022/02/03 10:41:56;;;;;;;27.75;9.35;;;21.10;57.60;;;;;;4950708;28;87956;-79
2022/02/03 10:44:13;;;;;;;21.00;8.05;;;21.20;57.60;;;;;;4948732;28;87180;-81
2022/02/03 10:49:24;;;;;;;24.30;8.32;;;21.20;57.70;;;;;;4951170;28;87822;-82
2022/02/03 10:55:28;;;;;;;18.00;7.13;;;21.20;57.70;;;;;;4950922;28;87123;-83
2022/02/03 10:58:06;;;;;;;18.70;7.30;;;21.20;57.70;;;;;;4950109;28;88119;-81
2022/02/03 11:00:51;;;;;;;21.45;7.90;;;21.20;57.90;;;;;;4949778;28;87961;-83
2022/02/03 11:03:22;;;;;;;18.77;7.57;;;21.20;57.90;;;;;;4950850;28;86883;-81
2022/02/03 11:10:57;;;;;;;14.80;6.43;;;21.20;58.00;;;;;;4947411;28;87793;-83
2022/02/03 11:13:34;;;;;;;19.75;7.35;;;21.20;58.10;;;;;;4949812;28;89184;-83
2022/02/03 11:16:05;;;;;;;16.70;6.78;;;21.20;58.00;;;;;;4950233;28;87712;-82
2022/02/03 11:18:32;;;;;;;20.02;7.18;;;21.20;58.00;;;;;;4964751;28;91077;-81
2022/02/03 11:20:59;;;;;;;15.57;6.72;;;21.20;58.10;;;;;;4950192;28;87634;-82
2022/02/03 11:26:17;;;;;;;14.38;6.22;;;21.20;58.00;;;;;;4949677;28;87692;-81
2022/02/03 11:42:31;;;;;;;17.25;5.72;;;21.30;57.90;;;;;;4949539;28;89608;-80
2022/02/03 11:47:49;;;;;;;13.85;5.88;;;21.30;57.00;;;;;;4945083;28;87772;-81
2022/02/03 12:01:42;;;;;;;18.23;5.97;;;21.30;56.70;;;;;;4946969;28;88064;-82
2022/02/03 12:04:30;;;;;;;17.52;5.55;;;21.30;56.90;;;;;;4952735;28;88289;-81
2022/02/03 12:26:14;;;;;;;14.73;5.65;;;21.30;56.60;;;;;;4953551;28;87789;-81
2022/02/03 12:28:50;;;;;;;11.95;5.15;;;21.30;56.40;;;;;;4953543;28;87615;-82
2022/02/03 12:39:11;;;;;;;15.20;5.40;;;21.40;56.50;;;;;;4952972;28;87512;-82
2022/02/03 12:41:42;;;;;;;15.13;5.50;;;21.40;56.20;;;;;;4952815;28;87477;-80
2022/02/03 12:44:23;;;;;;;15.38;5.45;;;21.30;56.20;;;;;;4951390;28;89962;-81
2022/02/03 12:46:49;;;;;;;12.68;5.05;;;21.30;56.10;;;;;;4951669;28;89814;-81
2022/02/03 12:49:19;;;;;;;16.08;5.63;;;21.30;56.20;;;;;;4949999;28;87831;-81
2022/02/03 12:51:45;;;;;;;14.30;5.10;;;21.30;56.30;;;;;;4939623;28;89383;-81
2022/02/03 12:54:16;;;;;;;13.52;5.20;;;21.40;56.10;;;;;;4951827;28;88236;-81
2022/02/03 12:56:42;;;;;;;13.15;5.45;;;21.30;57.10;;;;;;4951407;28;88701;-82
2022/02/03 12:59:11;;;;;;;12.57;5.30;;;21.40;56.50;;;;;;4948558;28;88433;-80
2022/02/03 13:01:39;;;;;;;;;;;21.40;56.60;;;;;;4953826;28;88189;-81
2022/02/03 13:04:24;;;;;;;13.27;5.45;;;21.40;56.50;;;;;;4953262;28;87855;-82
2022/02/03 13:07:02;;;;;;;15.35;5.18;;;21.40;56.10;;;;;;4952602;28;88418;-81
2022/02/03 13:09:36;;;;;;;13.73;5.07;;;21.40;56.20;;;;;;4950488;28;87390;-80
2022/02/03 13:12:19;;;;;;;15.20;5.53;;;21.40;56.30;;;;;;4951172;28;87587;-80
2022/02/03 13:14:52;;;;;;;12.63;5.28;;;21.40;56.80;;;;;;4952751;28;88134;-81
2022/02/03 13:17:23;;;;;;;11.88;5.50;;;21.40;56.60;;;;;;4952085;28;89483;-80
2022/02/03 13:20:09;;;;;;;12.10;4.68;;;21.40;56.20;;;;;;4952625;28;87708;-82
2022/02/03 13:22:48;;;;;;;15.27;5.00;;;21.40;56.70;;;;;;4966195;28;89756;-82
2022/02/03 13:27:57;;;;;;;17.65;5.40;;;21.40;56.90;;;;;;4955194;28;87918;-81
2022/02/03 13:33:17;;;;;;;12.35;4.72;;;21.40;56.30;;;;;;4951917;28;87963;-81
2022/02/03 13:35:52;;;;;;;16.52;4.78;;;21.40;56.20;;;;;;4951586;28;87595;-81
2022/02/03 13:38:39;;;;;;;15.20;4.97;;;21.40;56.60;;;;;;4953392;28;87429;-81
2022/02/03 13:41:10;;;;;;;13.93;5.13;;;21.40;56.60;;;;;;4952592;28;86900;-82
2022/02/03 13:43:38;;;;;;;17.25;5.13;;;21.40;56.30;;;;;;4953916;28;87196;-79
2022/02/03 13:46:05;;;;;;;12.95;4.75;;;21.40;56.40;;;;;;4952753;28;87770;-81
2022/02/03 13:48:31;;;;;;;10.68;4.47;;;21.40;57.00;;;;;;4952895;28;91142;-80
2022/02/03 13:51:00;;;;;;;13.25;4.20;;;21.40;57.30;;;;;;4951981;28;88435;-82
2022/02/03 13:53:38;;;;;;;11.05;4.13;;;21.40;56.70;;;;;;4952438;28;87965;-80
2022/02/03 14:10:36;;;;;;;17.13;4.70;;;21.50;57.60;;;;;;4955674;28;86417;-84
2022/02/03 14:21:23;;;;;;;7.80;4.28;;;21.50;57.30;;;;;;4954062;28;88092;-81
2022/02/03 14:29:43;;;;;;;10.20;4.32;;;21.40;58.10;;;;;;4978512;28;87636;-81
2022/02/03 14:32:10;;;;;;;11.90;4.15;;;21.40;56.90;;;;;;4980585;28;87798;-82
2022/02/03 14:34:37;;;;;;;12.25;4.78;;;21.40;56.70;;;;;;4954544;28;87173;-83
2022/02/03 14:37:22;;;;;;;13.68;4.82;;;21.40;56.10;;;;;;4954342;28;86369;-78
2022/02/03 14:42:16;;;;;;;8.98;4.45;;;21.40;56.20;;;;;;4953621;28;87321;-82
2022/02/03 14:44:47;;;;;;;8.93;4.10;;;21.40;55.20;;;;;;4954289;28;87952;-82
2022/02/03 14:47:13;;;;;;;10.65;4.32;;;21.40;55.80;;;;;;4953714;28;87604;-82
2022/02/03 14:49:42;;;;;;;7.47;3.50;;;21.40;55.30;;;;;;4954549;28;87689;-81
2022/02/03 14:52:27;;;;;;;8.63;4.20;;;21.40;54.10;;;;;;4952755;28;88084;-82
2022/02/03 15:00:22;;;;;;;10.70;4.78;;;21.40;54.40;;;;;;4953781;28;87635;-82
2022/02/03 15:02:49;;;;;;;16.15;5.68;;;21.40;54.80;;;;;;4954158;28;87771;-81
2022/02/03 15:05:23;;;;;;;36.20;9.52;;;21.40;54.70;;;;;;4967230;28;87931;-82
2022/02/03 15:07:55;;;;;;;26.65;8.13;;;21.40;54.60;;;;;;4953410;28;87185;-82
2022/02/03 15:13:07;;;;;;;27.27;7.50;;;21.40;54.00;;;;;;4953002;28;88253;-82
2022/02/03 15:15:33;;;;;;;21.27;7.15;;;21.40;53.70;;;;;;4952138;28;87117;-82
2022/02/03 15:17:59;;;;;;;23.38;7.45;;;21.40;55.30;;;;;;4952327;28;87976;-80
2022/02/03 15:20:24;;;;;;;21.27;7.32;;;21.40;56.50;;;;;;4951089;28;89979;-81
2022/02/03 15:22:51;;;;;;;20.60;7.47;;;21.40;56.00;;;;;;4951925;28;87569;-82
2022/02/03 15:25:16;;;;;;;23.38;7.20;;;21.40;56.30;;;;;;4952168;28;87445;-83
2022/02/03 15:27:42;;;;;;;22.45;7.22;;;21.40;56.80;;;;;;4951611;28;86990;-83
2022/02/03 15:30:09;;;;;;;22.20;7.18;;;21.40;56.60;;;;;;4951226;28;87792;-81
2022/02/03 15:32:42;;;;;;;20.75;7.05;;;21.40;56.20;;;;;;4950249;28;91060;-81
2022/02/03 15:35:20;;;;;;;22.30;8.27;;;21.40;56.40;;;;;;4950631;28;88311;-80
2022/02/03 15:37:47;;;;;;;24.23;7.32;;;21.40;55.10;;;;;;4951661;28;88418;-83
2022/02/03 15:40:18;;;;;;;20.35;7.13;;;21.40;55.70;;;;;;4953873;28;88093;-83
2022/02/03 15:42:53;;;;;;;16.77;6.70;;;21.40;56.20;;;;;;4953829;28;87598;-83
2022/02/03 15:45:19;;;;;;;23.15;6.95;;;21.40;56.40;;;;;;4952675;28;86908;-80
2022/02/03 15:47:51;;;;;;;20.95;6.82;;;21.40;56.60;;;;;;4952775;28;87270;-82
2022/02/03 16:17:56;;;;;;;20.58;6.22;;;21.50;58.10;;;;;;4950011;28;87321;-82
2022/02/03 16:20:27;;;;;;;17.65;6.53;;;21.50;58.10;;;;;;4949220;28;86498;-83
2022/02/03 16:53:08;;;;;;;16.10;6.18;;;21.60;57.90;;;;;;4944815;28;87710;-82
2022/02/03 16:55:37;;;;;;;18.00;5.97;;;21.60;57.40;;;;;;4942467;28;91613;-83
2022/02/03 16:58:05;;;;;;;12.90;6.45;;;21.60;57.40;;;;;;4938058;28;90409;-81
2022/02/03 17:00:31;;;;;;;14.27;5.97;;;21.60;57.60;;;;;;4947217;28;88200;-84
2022/02/03 17:02:57;;;;;;;11.32;5.60;;;21.60;57.50;;;;;;4949122;28;87505;-84
2022/02/03 17:05:23;;;;;;;17.25;5.97;;;21.60;57.70;;;;;;4949074;28;87616;-84
2022/02/03 17:07:49;;;;;;;11.25;5.07;;;21.60;58.00;;;;;;4947931;28;89813;-83
2022/02/03 17:10:15;;;;;;;12.63;5.10;;;21.60;58.10;;;;;;4947353;28;88050;-84
2022/02/03 17:12:43;;;;;;;14.10;5.45;;;21.60;58.00;;;;;;4949826;28;87072;-85
2022/02/03 17:15:09;;;;;;;12.40;4.80;;;21.60;58.30;;;;;;4948304;28;89257;-83
2022/02/03 17:17:35;;;;;;;16.63;5.35;;;21.70;58.40;;;;;;4949603;28;87856;-84
2022/02/03 17:20:01;;;;;;;13.55;5.28;;;21.70;58.40;;;;;;4949233;28;88684;-86
2022/02/03 17:22:35;;;;;;;12.10;5.40;;;21.70;58.70;;;;;;4945936;28;89955;-84
2022/02/03 17:27:55;;;;;;;15.93;5.75;;;21.70;58.90;;;;;;4948419;28;88505;-83
2022/02/03 17:30:26;;;;;;;12.23;5.10;;;21.80;58.30;;;;;;4948604;28;87691;-84
2022/02/03 18:03:07;;;;;;;12.35;5.25;;;21.80;57.40;;;;;;4948432;28;87058;-84
2022/02/03 18:30:09;;;;;;;12.65;5.00;;;21.80;58.70;;;;;;4948239;28;88063;-84
2022/02/03 18:32:38;;;;;;;11.52;5.13;;;21.80;58.20;;;;;;4948857;28;88555;-85
2022/02/03 18:51:23;;;;;;;10.52;4.53;;;21.80;57.80;;;;;;4945137;28;87821;-82
2022/02/03 18:58:58;;;;;;;8.10;4.07;;;21.80;58.00;;;;;;4946946;28;87210;-81
2022/02/03 19:26:00;;;;;;;8.80;4.60;;;21.90;57.20;;;;;;4947412;28;87932;-83
2022/02/03 19:28:29;;;;;;;11.32;5.85;;;21.90;57.50;;;;;;4947142;28;86949;-82
2022/02/03 20:03:59;;;;;;;9.30;4.38;;;21.90;58.10;;;;;;4951795;28;88066;-84
2022/02/03 20:08:59;;;;;;;9.52;4.82;;;22.00;57.50;;;;;;4951842;28;87790;-82
2022/02/03 20:11:26;;;;;;;8.10;4.38;;;21.90;57.40;;;;;;4948985;28;87711;-82
2022/02/03 20:13:52;;;;;;;9.63;4.50;;;22.00;58.00;;;;;;4948902;28;88098;-82
2022/02/03 20:16:21;;;;;;;8.40;4.63;;;22.00;57.80;;;;;;4948468;28;88060;-81
2022/02/03 20:18:46;;;;;;;9.63;4.72;;;22.00;57.60;;;;;;4948388;28;87304;-83
2022/02/03 20:21:12;;;;;;;9.23;4.88;;;22.00;57.50;;;;;;4947716;28;87794;-81
2022/02/03 20:23:43;;;;;;;8.32;4.45;;;22.00;57.40;;;;;;4949368;28;87561;-83
2022/02/03 20:26:12;;;;;;;7.20;4.40;;;21.90;57.50;;;;;;4950975;28;88550;-82
2022/02/03 20:28:38;;;;;;;12.57;4.33;;;21.90;57.60;;;;;;4951134;28;89360;-82
2022/02/03 20:31:04;;;;;;;7.35;4.68;;;21.90;57.60;;;;;;4951857;28;88108;-83
2022/02/03 20:33:30;;;;;;;6.82;4.15;;;22.00;57.30;;;;;;4951001;28;87587;-82
2022/02/03 20:35:56;;;;;;;9.60;4.07;;;22.00;57.40;;;;;;4953711;28;87869;-82
2022/02/03 20:38:22;;;;;;;9.10;4.25;;;22.00;58.40;;;;;;4955124;28;87645;-83
2022/02/03 20:40:48;;;;;;;10.20;4.80;;;22.00;57.60;;;;;;4944233;28;87537;-84
2022/02/03 20:43:14;;;;;;;7.85;4.57;;;22.00;57.20;;;;;;4957024;28;87374;-83
2022/02/03 20:45:41;;;;;;;7.75;4.22;;;22.00;57.10;;;;;;4953296;28;87696;-83
2022/02/03 20:48:07;;;;;;;8.80;4.95;;;21.90;57.20;;;;;;4942094;28;88939;-84
2022/02/03 20:50:37;;;;;;;6.70;4.35;;;22.00;57.30;;;;;;4950437;28;88601;-82
2022/02/03 20:53:12;;;;;;;5.20;3.92;;;21.90;57.10;;;;;;4952528;28;87485;-84
2022/02/03 20:55:43;;;;;;;6.15;4.10;;;22.00;57.40;;;;;;4950183;28;87738;-83
2022/02/03 20:58:13;;;;;;;6.32;3.85;;;22.00;57.30;;;;;;4950459;28;87641;-81
2022/02/03 21:01:01;;;;;;;7.95;4.32;;;22.00;57.40;;;;;;4949445;28;87609;-80
2022/02/03 21:05:53;;;;;;;7.32;3.83;;;22.00;57.60;;;;;;4949664;28;87580;-82
2022/02/03 21:08:23;;;;;;;7.47;4.55;;;22.00;57.50;;;;;;4952462;28;87829;-83
2022/02/03 21:10:49;;;;;;;7.35;4.30;;;22.00;57.40;;;;;;4950036;28;87602;-83
2022/02/03 21:13:17;;;;;;;5.95;4.25;;;22.00;57.60;;;;;;4948551;28;89868;-84
2022/02/03 21:15:42;;;;;;;5.68;3.75;;;22.00;57.70;;;;;;4949665;28;89151;-82
2022/02/03 21:18:11;;;;;;;6.80;4.00;;;22.00;57.60;;;;;;4950828;28;88716;-83
2022/02/03 21:20:38;;;;;;;5.70;3.73;;;22.00;57.50;;;;;;4950621;28;87595;-84
2022/02/03 21:23:05;;;;;;;4.93;3.55;;;22.00;57.50;;;;;;4948440;28;87610;-81
2022/02/03 21:25:37;;;;;;;7.22;4.53;;;22.00;57.40;;;;;;4949374;28;87542;-82
2022/02/03 21:28:12;;;;;;;6.60;4.10;;;22.00;57.40;;;;;;4947875;28;90653;-83
2022/02/03 21:30:39;;;;;;;5.90;4.10;;;22.00;57.70;;;;;;4951232;28;87628;-82
2022/02/03 21:33:09;;;;;;;6.30;4.38;;;22.00;57.30;;;;;;4952117;28;86790;-82
2022/02/03 21:35:35;;;;;;;6.95;3.80;;;22.00;57.40;;;;;;4938205;28;89528;-81
2022/02/03 21:38:04;;;;;;;5.32;3.80;;;22.00;57.20;;;;;;4947206;28;89964;-80
2022/02/03 21:40:32;;;;;;;7.57;4.53;;;22.00;57.40;;;;;;4949113;28;88548;-82
2022/02/03 21:42:58;;;;;;;7.00;3.95;;;22.00;57.20;;;;;;4949588;28;87240;-82
2022/02/03 21:45:23;;;;;;;7.05;3.00;;;22.00;57.30;;;;;;4949180;28;88176;-82
2022/02/03 21:47:52;;;;;;;7.35;3.30;;;22.00;56.50;;;;;;4948275;28;87342;-82
2022/02/03 21:50:18;;;;;;;9.47;4.40;;;22.00;53.00;;;;;;4949949;28;87803;-82
2022/02/03 21:52:54;;;;;;;6.22;4.22;;;22.00;56.20;;;;;;4937336;28;89579;-84
2022/02/03 21:55:20;;;;;;;7.25;4.60;;;22.00;56.40;;;;;;4950197;28;87414;-83
2022/02/03 21:57:47;;;;;;;6.68;3.67;;;22.00;56.30;;;;;;4949871;28;87687;-84
2022/02/03 22:00:15;;;;;;;5.55;3.85;;;21.90;57.00;;;;;;4950700;28;87522;-84
2022/02/03 22:02:42;;;;;;;6.83;3.50;;;21.90;56.50;;;;;;4950839;28;88614;-83
2022/02/03 22:05:11;;;;;;;7.32;3.42;;;21.90;56.90;;;;;;4991690;22;88639;-85
2022/02/03 22:07:40;;;;;;;5.68;3.53;;;21.90;57.00;;;;;;4950176;28;88591;-83
2022/02/03 22:10:07;;;;;;;8.07;3.53;;;21.90;56.80;;;;;;4950652;28;87003;-85
2022/02/03 22:12:32;;;;;;;6.55;3.40;;;21.90;57.40;;;;;;4949207;28;87397;-84
2022/02/03 22:14:58;;;;;;;5.80;4.25;;;21.80;57.50;;;;;;4950107;28;88930;-84
2022/02/03 22:17:33;;;;;;;5.68;3.00;;;21.80;56.70;;;;;;4950332;28;89713;-85
2022/02/03 22:20:04;;;;;;;6.18;3.20;;;21.90;57.50;;;;;;4951142;28;87611;-84
2022/02/03 22:23:21;;;;;;;5.10;3.33;;;21.80;57.30;;;;;;4951356;28;87138;-86
2022/02/03 22:28:23;;;;;;;6.53;3.45;;;21.80;57.50;;;;;;4950524;28;87099;-84
2022/02/03 22:44:54;;;;;;;5.28;3.40;;;21.70;57.20;;;;;;4950743;28;87527;-85
2022/02/03 22:47:22;;;;;;;4.80;3.25;;;21.70;57.30;;;;;;4949035;28;88102;-83
2022/02/03 22:49:48;;;;;;;6.18;3.60;;;21.70;57.40;;;;;;4950112;28;87729;-83
2022/02/03 22:52:16;;;;;;;4.07;3.17;;;21.70;57.30;;;;;;4950208;28;87940;-84
2022/02/03 22:54:42;;;;;;;3.85;2.72;;;21.70;57.10;;;;;;4949756;28;87867;-85
2022/02/03 22:57:08;;;;;;;6.05;3.30;;;21.70;57.20;;;;;;4948233;28;89303;-84
2022/02/03 23:02:20;;;;;;;5.40;3.30;;;21.70;57.20;;;;;;4949810;28;88110;-85
2022/02/03 23:04:45;;;;;;;4.47;3.13;;;21.70;57.10;;;;;;4949979;28;88319;-85
2022/02/03 23:07:17;;;;;;;4.10;3.10;;;21.70;57.80;;;;;;4949731;28;88612;-83
2022/02/03 23:10:15;;;;;;;4.70;3.17;;;21.70;57.20;;;;;;4948196;28;90304;-85
2022/02/03 23:17:46;;;;;;;4.40;2.95;;;21.60;57.00;;;;;;4948528;28;87524;-85
2022/02/03 23:20:27;;;;;;;3.53;2.90;;;21.60;56.90;;;;;;4948904;28;88026;-84
2022/02/03 23:22:53;;;;;;;4.43;3.10;;;21.60;57.10;;;;;;4948641;28;88882;-85
2022/02/03 23:25:21;;;;;;;4.80;3.28;;;21.60;57.00;;;;;;4950126;28;87592;-82
2022/02/03 23:30:20;;;;;;;5.65;3.20;;;21.60;57.00;;;;;;4948680;28;87627;-83
2022/02/03 23:32:47;;;;;;;4.63;2.95;;;21.60;56.90;;;;;;4949611;28;87782;-86
2022/02/03 23:35:20;;;;;;;4.53;3.17;;;21.60;56.90;;;;;;4949390;28;87207;-83
2022/02/03 23:37:56;;;;;;;3.97;2.63;;;21.50;56.90;;;;;;4949150;28;88869;-83
2022/02/03 23:40:47;;;;;;;4.53;3.13;;;21.60;56.90;;;;;;4947999;28;91259;-85
